createdAt,value
2023-04-07T00:01:10.785Z,51.33
2023-04-07T00:04:13.422Z,51.30
2023-04-07T00:07:16.022Z,51.26
2023-04-07T00:10:18.353Z,51.61
2023-04-07T00:13:20.766Z,51.21
2023-04-07T00:16:23.334Z,51.30
2023-04-07T00:19:25.713Z,51.13
2023-04-07T00:22:28.501Z,51.23
2023-04-07T00:25:30.875Z,51.34
2023-04-07T00:28:33.206Z,51.44
2023-04-07T00:31:35.781Z,51.53
2023-04-07T00:34:38.220Z,51.59
2023-04-07T00:37:40.573Z,51.45
2023-04-07T00:40:42.890Z,51.37
2023-04-07T00:43:46.086Z,51.15
2023-04-07T00:46:49.001Z,51.51
2023-04-07T00:49:51.532Z,51.48
2023-04-07T00:52:54.902Z,51.51
2023-04-07T00:55:57.225Z,51.66
2023-04-07T00:58:59.573Z,51.39
2023-04-07T01:02:16.337Z,51.59
2023-04-07T01:05:25.107Z,51.85
2023-04-07T01:08:52.396Z,51.81
2023-04-07T01:12:05.997Z,52.04
2023-04-07T01:15:11.733Z,51.48
2023-04-07T01:18:27.969Z,51.60
2023-04-07T01:21:34.264Z,51.77
2023-04-07T01:24:57.681Z,51.70
2023-04-07T01:28:39.662Z,51.72
2023-04-07T01:31:42.405Z,51.81
2023-04-07T01:34:45.875Z,51.50
2023-04-07T01:37:49.495Z,51.86
2023-04-07T01:40:52.403Z,52.11
2023-04-07T01:43:55.410Z,52.19
2023-04-07T01:47:00.282Z,52.04
2023-04-07T01:50:05.448Z,51.77
2023-04-07T01:53:08.143Z,51.61
2023-04-07T01:56:10.908Z,51.58
2023-04-07T01:59:13.385Z,51.80
2023-04-07T02:02:16.254Z,51.75
2023-04-07T02:05:20.977Z,52.10
2023-04-07T02:08:24.727Z,52.01
2023-04-07T02:11:27.744Z,52.06
2023-04-07T02:14:34.189Z,51.84
2023-04-07T02:17:43.620Z,51.72
2023-04-07T02:20:46.438Z,51.94
2023-04-07T02:23:48.799Z,52.10
2023-04-07T02:26:51.229Z,52.21
2023-04-07T02:29:54.454Z,51.98
2023-04-07T02:32:59.094Z,52.21
2023-04-07T02:36:01.648Z,52.30
2023-04-07T02:39:04.282Z,52.02
2023-04-07T02:42:06.628Z,52.19
2023-04-07T02:45:10.299Z,52.00
2023-04-07T02:48:12.899Z,52.08
2023-04-07T02:51:15.414Z,52.30
2023-04-07T02:54:17.734Z,52.42
2023-04-07T02:57:20.660Z,52.28
2023-04-07T03:00:25.549Z,52.51
2023-04-07T03:03:36.779Z,52.49
2023-04-07T03:06:52.802Z,52.41
2023-04-07T03:09:55.840Z,52.01
2023-04-07T03:12:58.343Z,52.45
2023-04-07T03:16:00.906Z,52.38
2023-04-07T03:19:09.540Z,52.20
2023-04-07T03:22:15.661Z,52.32
2023-04-07T03:25:25.635Z,52.14
2023-04-07T03:28:28.013Z,52.61
2023-04-07T03:31:30.612Z,52.06
2023-04-07T03:34:33.459Z,52.21
2023-04-07T03:37:36.062Z,52.42
2023-04-07T03:40:40.826Z,52.46
2023-04-07T03:43:43.224Z,52.80
2023-04-07T03:46:48.331Z,52.32
2023-04-07T03:49:52.073Z,52.51
2023-04-07T03:52:57.099Z,52.21
2023-04-07T03:56:02.084Z,52.24
2023-04-07T03:59:33.572Z,52.19
2023-04-07T04:02:39.697Z,52.28
2023-04-07T04:05:44.893Z,52.52
2023-04-07T04:08:52.878Z,52.54
2023-04-07T04:11:57.115Z,52.30
2023-04-07T04:15:00.045Z,51.91
2023-04-07T04:18:03.101Z,50.86
2023-04-07T04:21:08.598Z,50.23
2023-04-07T04:24:13.661Z,49.96
2023-04-07T04:27:16.501Z,49.09
2023-04-07T04:30:22.556Z,48.92
2023-04-07T04:33:32.051Z,48.52
2023-04-07T04:36:37.897Z,47.73
2023-04-07T04:39:41.411Z,47.42
2023-04-07T04:42:47.012Z,46.64
2023-04-07T04:45:51.004Z,46.54
2023-04-07T04:48:55.533Z,45.83
2023-04-07T04:51:59.600Z,45.06
2023-04-07T04:55:02.797Z,44.66
2023-04-07T04:58:05.438Z,44.63
2023-04-07T05:01:20.531Z,44.14
2023-04-07T05:04:29.903Z,43.85
2023-04-07T05:07:51.378Z,44.00
2023-04-07T05:10:55.231Z,43.42
2023-04-07T05:14:00.556Z,43.07
2023-04-07T05:17:03.000Z,42.99
2023-04-07T05:20:06.134Z,42.86
2023-04-07T05:23:12.101Z,42.34
2023-04-07T05:26:15.931Z,42.59
2023-04-07T05:29:19.237Z,42.50
2023-04-07T05:32:21.756Z,42.64
2023-04-07T05:35:24.414Z,42.17
2023-04-07T05:38:31.666Z,42.77
2023-04-07T05:41:39.120Z,43.01
2023-04-07T05:44:41.779Z,43.05
2023-04-07T05:47:44.297Z,43.28
2023-04-07T05:50:47.328Z,42.96
2023-04-07T05:53:53.250Z,43.51
2023-04-07T05:56:58.422Z,43.80
2023-04-07T06:00:04.375Z,43.79
2023-04-07T06:03:16.728Z,44.08
2023-04-07T06:06:45.487Z,44.27
2023-04-07T06:09:48.008Z,44.63
2023-04-07T06:12:50.488Z,44.52
2023-04-07T06:15:56.050Z,44.78
2023-04-07T06:18:58.422Z,45.07
2023-04-07T06:22:00.857Z,44.70
2023-04-07T06:25:03.248Z,44.95
2023-04-07T06:28:07.474Z,44.36
2023-04-07T06:31:11.098Z,44.05
2023-04-07T06:34:14.111Z,44.02
2023-04-07T06:37:17.126Z,43.52
2023-04-07T06:40:19.557Z,43.38
2023-04-07T06:43:21.942Z,43.16
2023-04-07T06:46:30.466Z,42.46
2023-04-07T06:49:33.838Z,41.77
2023-04-07T06:52:36.985Z,42.12
2023-04-07T06:55:39.355Z,42.20
2023-04-07T06:58:41.789Z,42.18
2023-04-07T07:01:45.511Z,42.04
2023-04-07T07:04:47.941Z,42.20
2023-04-07T07:07:51.641Z,42.53
2023-04-07T07:10:54.320Z,42.32
2023-04-07T07:13:56.744Z,42.43
2023-04-07T07:16:59.089Z,42.82
2023-04-07T07:20:01.495Z,42.80
2023-04-07T07:23:04.387Z,42.72
2023-04-07T07:26:06.750Z,42.89
2023-04-07T07:29:09.097Z,43.50
2023-04-07T07:32:11.432Z,43.05
2023-04-07T07:35:14.251Z,43.87
2023-04-07T07:38:16.607Z,44.02
2023-04-07T07:41:18.962Z,44.30
2023-04-07T07:44:22.749Z,44.25
2023-04-07T07:47:26.358Z,44.12
2023-04-07T07:50:28.722Z,44.73
2023-04-07T07:53:31.360Z,44.81
2023-04-07T07:56:33.696Z,44.70
2023-04-07T07:59:36.119Z,44.61
2023-04-07T08:02:39.087Z,45.01
2023-04-07T08:05:42.794Z,44.23
2023-04-07T08:08:45.197Z,44.24
2023-04-07T08:11:48.693Z,43.69
2023-04-07T08:14:51.079Z,43.92
2023-04-07T08:17:54.815Z,43.51
2023-04-07T08:20:58.523Z,43.13
2023-04-07T08:24:02.011Z,42.71
2023-04-07T08:27:04.461Z,42.34
2023-04-07T08:30:07.438Z,42.34
2023-04-07T08:33:09.845Z,42.05
2023-04-07T08:36:12.357Z,42.40
2023-04-07T08:39:14.740Z,41.85
2023-04-07T08:42:17.749Z,41.98
2023-04-07T08:45:20.526Z,42.04
2023-04-07T08:48:26.877Z,42.37
2023-04-07T08:51:31.891Z,42.34
2023-04-07T08:54:35.181Z,42.47
2023-04-07T08:57:37.554Z,42.43
2023-04-07T09:00:46.884Z,42.66
2023-04-07T09:03:50.123Z,42.47
2023-04-07T09:06:52.647Z,42.81
2023-04-07T09:09:56.272Z,42.70
2023-04-07T09:12:59.725Z,42.79
2023-04-07T09:16:03.259Z,43.37
2023-04-07T09:19:06.444Z,42.88
2023-04-07T09:22:12.531Z,43.25
2023-04-07T09:25:27.312Z,43.95
2023-04-07T09:28:42.283Z,43.70
2023-04-07T09:31:46.669Z,43.36
2023-04-07T09:34:58.781Z,43.83
2023-04-07T09:38:02.781Z,44.38
2023-04-07T09:41:16.815Z,44.05
2023-04-07T09:44:23.438Z,43.88
2023-04-07T09:47:29.941Z,44.33
2023-04-07T09:50:41.309Z,44.34
2023-04-07T09:53:51.743Z,44.12
2023-04-07T09:56:54.536Z,44.21
2023-04-07T09:59:57.256Z,43.98
2023-04-07T10:02:59.770Z,43.46
2023-04-07T10:06:02.303Z,43.42
2023-04-07T10:09:04.743Z,43.09
2023-04-07T10:12:07.124Z,42.91
2023-04-07T10:15:13.312Z,42.73
2023-04-07T10:18:18.498Z,42.13
2023-04-07T10:21:21.143Z,42.26
2023-04-07T10:24:48.888Z,41.80
2023-04-07T10:28:05.676Z,41.80
2023-04-07T10:31:08.231Z,42.18
2023-04-07T10:34:10.712Z,41.78
2023-04-07T10:37:14.342Z,42.15
2023-04-07T10:40:19.558Z,42.28
2023-04-07T10:43:38.333Z,42.19
2023-04-07T10:46:49.602Z,42.51
2023-04-07T10:50:15.033Z,42.65
2023-04-07T10:53:17.542Z,42.45
2023-04-07T10:56:19.963Z,42.68
2023-04-07T10:59:27.729Z,43.24
2023-04-07T11:02:31.250Z,43.21
2023-04-07T11:05:33.806Z,43.08
2023-04-07T11:08:49.206Z,43.35
2023-04-07T11:11:52.551Z,43.91
2023-04-07T11:14:54.916Z,44.26
2023-04-07T11:18:26.705Z,44.13
2023-04-07T11:21:29.026Z,44.05
2023-04-07T11:24:40.511Z,44.64
2023-04-07T11:27:44.828Z,44.30
2023-04-07T11:30:51.536Z,44.40
2023-04-07T11:34:02.293Z,44.38
2023-04-07T11:37:21.798Z,44.55
2023-04-07T11:40:37.022Z,44.80
2023-04-07T11:43:42.025Z,44.84
2023-04-07T11:47:03.656Z,44.66
2023-04-07T11:50:07.596Z,44.90
2023-04-07T11:53:10.175Z,44.23
2023-04-07T11:56:17.681Z,43.93
2023-04-07T11:59:24.867Z,43.24
2023-04-07T12:02:36.343Z,43.10
2023-04-07T12:05:45.308Z,42.74
2023-04-07T12:08:47.620Z,42.45
2023-04-07T12:11:50.341Z,42.21
2023-04-07T12:14:53.023Z,41.92
2023-04-07T12:17:55.694Z,41.96
2023-04-07T12:20:59.142Z,42.08
2023-04-07T12:24:02.192Z,42.00
2023-04-07T12:27:04.560Z,42.26
2023-04-07T12:30:07.726Z,41.96
2023-04-07T12:33:10.096Z,42.50
2023-04-07T12:36:12.696Z,42.41
2023-04-07T12:39:15.641Z,42.40
2023-04-07T12:42:17.981Z,42.64
2023-04-07T12:45:20.578Z,42.82
2023-04-07T12:48:23.729Z,42.91
2023-04-07T12:51:26.365Z,42.99
2023-04-07T12:54:28.796Z,43.23
2023-04-07T12:57:31.174Z,43.33
2023-04-07T13:00:33.587Z,43.52
2023-04-07T13:03:36.391Z,43.62
2023-04-07T13:06:38.919Z,43.77
2023-04-07T13:09:44.606Z,43.96
2023-04-07T13:12:47.314Z,43.75
2023-04-07T13:15:49.798Z,44.03
2023-04-07T13:18:52.150Z,44.29
2023-04-07T13:21:54.891Z,44.38
2023-04-07T13:24:57.325Z,44.90
2023-04-07T13:27:59.897Z,44.70
2023-04-07T13:31:02.377Z,44.83
2023-04-07T13:34:04.826Z,44.61
2023-04-07T13:37:07.220Z,44.96
2023-04-07T13:40:10.005Z,45.13
2023-04-07T13:43:12.818Z,44.91
2023-04-07T13:46:27.898Z,45.10
2023-04-07T13:49:30.791Z,44.58
2023-04-07T13:52:35.539Z,44.63
2023-04-07T13:55:38.791Z,43.89
2023-04-07T13:58:41.205Z,43.54
2023-04-07T14:01:43.795Z,43.45
2023-04-07T14:04:46.650Z,43.14
2023-04-07T14:07:49.643Z,42.62
2023-04-07T14:10:52.386Z,42.36
2023-04-07T14:13:56.607Z,42.23
2023-04-07T14:17:00.261Z,42.08
2023-04-07T14:20:02.620Z,42.47
2023-04-07T14:23:05.013Z,42.14
2023-04-07T14:26:10.650Z,42.34
2023-04-07T14:29:13.714Z,42.30
2023-04-07T14:32:17.091Z,42.72
2023-04-07T14:35:19.539Z,42.51
2023-04-07T14:38:25.978Z,42.88
2023-04-07T14:41:28.528Z,42.77
2023-04-07T14:44:31.739Z,43.41
2023-04-07T14:47:34.195Z,43.10
2023-04-07T14:50:36.572Z,43.62
2023-04-07T14:53:40.087Z,43.17
2023-04-07T14:56:42.529Z,43.82
2023-04-07T14:59:44.898Z,43.92
2023-04-07T15:02:47.424Z,43.97
2023-04-07T15:05:49.860Z,44.21
2023-04-07T15:08:52.288Z,44.23
2023-04-07T15:11:56.352Z,44.42
2023-04-07T15:14:58.756Z,44.48
2023-04-07T15:18:01.183Z,44.69
2023-04-07T15:21:03.596Z,44.75
2023-04-07T15:24:05.934Z,44.92
2023-04-07T15:27:08.749Z,45.12
2023-04-07T15:30:11.553Z,45.02
2023-04-07T15:33:14.206Z,45.07
2023-04-07T15:36:16.609Z,45.26
2023-04-07T15:39:19.011Z,45.35
2023-04-07T15:42:21.306Z,45.67
2023-04-07T15:45:23.693Z,45.66
2023-04-07T15:48:26.059Z,45.73
2023-04-07T15:51:29.492Z,45.43
2023-04-07T15:54:32.449Z,44.55
2023-04-07T15:57:34.789Z,44.58
2023-04-07T16:00:38.448Z,43.98
2023-04-07T16:03:40.973Z,43.99
2023-04-07T16:06:43.393Z,43.29
2023-04-07T16:09:46.032Z,42.79
2023-04-07T16:12:48.636Z,42.92
2023-04-07T16:15:55.878Z,42.75
2023-04-07T16:18:58.210Z,42.82
2023-04-07T16:22:00.573Z,42.95
2023-04-07T16:25:02.970Z,42.77
2023-04-07T16:28:05.407Z,42.74
2023-04-07T16:31:08.870Z,42.39
2023-04-07T16:34:12.384Z,42.89
2023-04-07T16:37:14.766Z,42.93
2023-04-07T16:40:17.218Z,43.40
2023-04-07T16:43:19.751Z,43.73
2023-04-07T16:46:26.015Z,43.72
2023-04-07T16:49:28.476Z,44.03
2023-04-07T16:52:31.322Z,43.85
2023-04-07T16:55:36.402Z,44.34
2023-04-07T16:58:38.747Z,44.08
2023-04-07T17:01:42.747Z,44.62
2023-04-07T17:04:45.412Z,44.40
2023-04-07T17:07:47.862Z,44.87
2023-04-07T17:10:50.239Z,44.83
2023-04-07T17:13:56.344Z,44.85
2023-04-07T17:16:59.890Z,44.92
2023-04-07T17:20:02.331Z,45.15
2023-04-07T17:23:04.716Z,45.20
2023-04-07T17:26:07.103Z,45.45
2023-04-07T17:29:09.574Z,45.47
2023-04-07T17:32:11.901Z,45.61
2023-04-07T17:35:14.258Z,45.80
2023-04-07T17:38:16.633Z,46.17
2023-04-07T17:41:19.504Z,46.05
2023-04-07T17:44:21.982Z,46.24
2023-04-07T17:47:25.175Z,46.35
2023-04-07T17:50:27.758Z,46.14
2023-04-07T17:53:31.306Z,46.46
2023-04-07T17:56:33.931Z,45.94
2023-04-07T17:59:36.343Z,45.31
2023-04-07T18:02:40.435Z,45.03
2023-04-07T18:05:46.663Z,44.41
2023-04-07T18:08:49.365Z,43.98
2023-04-07T18:11:51.708Z,43.92
2023-04-07T18:14:54.036Z,43.76
2023-04-07T18:17:56.472Z,43.89
2023-04-07T18:20:58.850Z,43.97
2023-04-07T18:24:01.518Z,43.96
2023-04-07T18:27:04.098Z,44.41
2023-04-07T18:30:07.253Z,44.09
2023-04-07T18:33:09.756Z,44.34
2023-04-07T18:36:12.899Z,44.54
2023-04-07T18:39:15.426Z,44.43
2023-04-07T18:42:18.149Z,44.78
2023-04-07T18:45:20.687Z,44.50
2023-04-07T18:48:23.103Z,45.15
2023-04-07T18:51:25.976Z,44.82
2023-04-07T18:54:28.653Z,44.93
2023-04-07T18:57:31.038Z,45.32
2023-04-07T19:00:33.557Z,45.19
2023-04-07T19:03:36.215Z,45.51
2023-04-07T19:06:38.716Z,45.55
2023-04-07T19:09:42.644Z,45.82
2023-04-07T19:12:45.173Z,45.74
2023-04-07T19:15:47.871Z,45.69
2023-04-07T19:18:51.806Z,46.21
2023-04-07T19:21:54.158Z,46.20
2023-04-07T19:24:56.547Z,46.19
2023-04-07T19:27:59.214Z,46.48
2023-04-07T19:31:01.588Z,46.69
2023-04-07T19:34:04.020Z,46.83
2023-04-07T19:37:06.477Z,47.03
2023-04-07T19:40:09.452Z,47.17
2023-04-07T19:43:14.060Z,47.43
2023-04-07T19:46:16.989Z,47.42
2023-04-07T19:49:19.772Z,47.54
2023-04-07T19:52:22.217Z,47.91
2023-04-07T19:55:24.638Z,47.89
2023-04-07T19:58:26.999Z,48.31
2023-04-07T20:01:29.461Z,48.03
2023-04-07T20:04:31.886Z,48.38
2023-04-07T20:07:34.319Z,48.18
2023-04-07T20:10:36.720Z,48.54
2023-04-07T20:13:40.019Z,48.53
2023-04-07T20:16:42.960Z,48.45
2023-04-07T20:19:45.531Z,48.89
2023-04-07T20:22:47.912Z,48.82
2023-04-07T20:25:50.550Z,49.25
2023-04-07T20:28:53.481Z,49.13
2023-04-07T20:31:56.050Z,49.16
2023-04-07T20:34:58.402Z,49.08
2023-04-07T20:38:02.697Z,49.57
2023-04-07T20:41:05.120Z,49.32
2023-04-07T20:44:07.683Z,49.49
2023-04-07T20:47:10.950Z,49.96
2023-04-07T20:50:13.349Z,49.85
2023-04-07T20:53:16.742Z,49.58
2023-04-07T20:56:19.152Z,49.66
2023-04-07T20:59:21.764Z,50.04
2023-04-07T21:02:24.240Z,50.13
2023-04-07T21:05:26.786Z,50.01
2023-04-07T21:08:29.126Z,50.14
2023-04-07T21:11:31.656Z,50.17
2023-04-07T21:14:35.001Z,50.06
2023-04-07T21:17:37.430Z,50.42
2023-04-07T21:20:40.081Z,50.38
2023-04-07T21:23:42.478Z,50.49
2023-04-07T21:26:44.841Z,50.27
2023-04-07T21:29:47.237Z,50.34
2023-04-07T21:32:49.619Z,50.51
2023-04-07T21:35:52.185Z,50.59
2023-04-07T21:38:54.547Z,50.77
2023-04-07T21:41:57.472Z,50.42
2023-04-07T21:44:59.878Z,50.64
2023-04-07T21:48:02.451Z,50.60
2023-04-07T21:51:04.873Z,50.54
2023-04-07T21:54:07.691Z,50.87
2023-04-07T21:57:10.070Z,50.78
2023-04-07T22:00:15.918Z,50.82
2023-04-07T22:03:18.597Z,50.79
2023-04-07T22:06:21.242Z,50.79
2023-04-07T22:09:23.793Z,51.13
2023-04-07T22:12:26.220Z,50.58
2023-04-07T22:15:28.600Z,50.85
2023-04-07T22:18:31.052Z,50.36
2023-04-07T22:21:33.685Z,51.21
2023-04-07T22:24:36.041Z,51.03
2023-04-07T22:27:38.514Z,51.05
2023-04-07T22:30:40.951Z,51.14
2023-04-07T22:33:43.299Z,51.02
2023-04-07T22:36:45.976Z,51.04
2023-04-07T22:39:48.444Z,51.42
2023-04-07T22:42:50.751Z,51.52
2023-04-07T22:45:53.067Z,51.43
2023-04-07T22:48:55.664Z,51.68
2023-04-07T22:51:58.004Z,51.91
2023-04-07T22:55:00.382Z,51.42
2023-04-07T22:58:02.756Z,51.92
2023-04-07T23:01:05.176Z,51.74
2023-04-07T23:04:07.574Z,51.54
2023-04-07T23:07:09.923Z,51.89
2023-04-07T23:10:12.405Z,51.43
2023-04-07T23:13:15.924Z,51.72
2023-04-07T23:16:18.366Z,51.89
2023-04-07T23:19:20.763Z,51.91
2023-04-07T23:22:23.122Z,51.76
2023-04-07T23:25:25.915Z,52.16
2023-04-07T23:28:28.449Z,52.11
2023-04-07T23:31:31.257Z,52.08
2023-04-07T23:34:33.579Z,52.13
2023-04-07T23:37:36.195Z,52.33
2023-04-07T23:40:38.541Z,51.89
2023-04-07T23:43:41.093Z,52.04
2023-04-07T23:46:43.433Z,52.41
2023-04-07T23:49:45.777Z,52.07
2023-04-07T23:52:48.110Z,52.18
2023-04-07T23:55:50.586Z,52.29
2023-04-07T23:58:52.912Z,52.05
